createdAt,value
2022-12-23T00:00:12.404Z,1.80
2022-12-23T00:02:39.356Z,1.88
2022-12-23T00:05:06.998Z,2.20
2022-12-23T00:07:34.079Z,3.10
2022-12-23T00:10:00.907Z,3.08
2022-12-23T00:12:27.755Z,2.67
2022-12-23T00:15:07.587Z,2.75
2022-12-23T00:17:36.950Z,2.58
2022-12-23T00:20:05.719Z,2.75
2022-12-23T00:22:32.560Z,2.60
2022-12-23T00:25:18.124Z,2.23
2022-12-23T00:27:48.370Z,2.58
2022-12-23T00:30:16.127Z,2.63
2022-12-23T00:32:44.751Z,2.28
2022-12-23T00:35:11.672Z,2.30
2022-12-23T00:37:38.724Z,2.07
2022-12-23T00:40:07.059Z,2.10
2022-12-23T00:42:34.162Z,2.10
2022-12-23T00:45:01.015Z,2.00
2022-12-23T00:47:27.893Z,2.20
2022-12-23T00:49:54.784Z,2.30
2022-12-23T00:52:21.557Z,2.15
2022-12-23T00:54:48.497Z,1.88
2022-12-23T00:57:15.267Z,2.05
2022-12-23T00:59:42.110Z,2.00
2022-12-23T01:02:11.967Z,2.00
2022-12-23T01:04:39.168Z,1.60
2022-12-23T01:07:07.138Z,1.98
2022-12-23T01:09:34.861Z,2.05
2022-12-23T01:12:02.009Z,2.00
2022-12-23T01:14:29.085Z,1.93
2022-12-23T01:16:56.316Z,1.85
2022-12-23T01:19:23.147Z,2.28
2022-12-23T01:21:50.130Z,2.15
2022-12-23T01:24:17.546Z,2.17
2022-12-23T01:26:44.451Z,2.17
2022-12-23T01:29:11.540Z,3.00
2022-12-23T01:31:38.465Z,2.13
2022-12-23T01:34:05.576Z,1.77
2022-12-23T01:36:32.458Z,2.28
2022-12-23T01:38:59.302Z,2.20
2022-12-23T01:41:30.262Z,2.50
2022-12-23T01:43:57.102Z,2.40
2022-12-23T01:46:24.052Z,2.22
2022-12-23T01:48:53.178Z,2.53
2022-12-23T01:51:26.049Z,2.33
2022-12-23T01:53:56.889Z,2.50
2022-12-23T01:56:32.950Z,2.55
2022-12-23T01:59:07.807Z,2.55
2022-12-23T02:01:34.895Z,2.20
2022-12-23T02:04:06.763Z,2.53
2022-12-23T02:06:39.663Z,2.58
2022-12-23T02:09:14.803Z,2.30
2022-12-23T02:11:59.682Z,2.38
2022-12-23T02:14:53.031Z,2.67
2022-12-23T02:17:41.676Z,2.23
2022-12-23T02:20:33.390Z,2.42
2022-12-23T02:23:27.845Z,2.35
2022-12-23T02:26:16.514Z,2.03
2022-12-23T02:29:08.093Z,2.03
2022-12-23T02:31:40.860Z,1.87
2022-12-23T02:34:19.310Z,1.90
2022-12-23T02:37:14.627Z,2.22
2022-12-23T02:40:19.981Z,1.52
2022-12-23T02:42:59.277Z,1.73
2022-12-23T02:46:09.526Z,1.67
2022-12-23T02:48:48.656Z,1.15
2022-12-23T02:51:17.065Z,1.70
2022-12-23T02:53:52.997Z,1.40
2022-12-23T02:56:23.082Z,1.33
2022-12-23T02:58:55.971Z,1.20
2022-12-23T03:01:26.479Z,1.58
2022-12-23T03:03:53.421Z,4.78
2022-12-23T03:06:28.144Z,5.65
2022-12-23T03:08:57.674Z,5.57
2022-12-23T03:11:48.046Z,7.03
2022-12-23T03:14:27.497Z,7.30
2022-12-23T03:17:09.978Z,6.75
2022-12-23T03:19:42.517Z,8.55
2022-12-23T03:22:24.602Z,10.25
2022-12-23T03:25:18.660Z,10.37
2022-12-23T03:27:53.247Z,9.68
2022-12-23T03:30:22.976Z,8.10
2022-12-23T03:32:59.499Z,8.73
2022-12-23T03:35:31.897Z,9.15
2022-12-23T03:38:02.757Z,9.47
2022-12-23T03:40:39.397Z,10.80
2022-12-23T03:43:20.167Z,10.38
2022-12-23T03:45:58.375Z,10.05
2022-12-23T03:48:35.513Z,8.63
2022-12-23T03:51:10.619Z,8.60
2022-12-23T03:53:55.139Z,8.85
2022-12-23T03:56:28.449Z,10.30
2022-12-23T03:58:59.431Z,10.13
2022-12-23T04:01:35.541Z,11.20
2022-12-23T04:04:10.973Z,18.80
2022-12-23T04:06:46.958Z,16.63
2022-12-23T04:09:21.728Z,16.40
2022-12-23T04:11:49.421Z,9.27
2022-12-23T04:14:21.076Z,3.55
2022-12-23T04:16:50.571Z,2.97
2022-12-23T04:19:17.393Z,2.50
2022-12-23T04:21:44.350Z,3.08
2022-12-23T04:24:11.216Z,2.58
2022-12-23T04:26:37.993Z,3.25
2022-12-23T04:29:05.001Z,4.67
2022-12-23T04:31:32.342Z,4.10
2022-12-23T04:33:59.753Z,4.05
2022-12-23T04:36:27.620Z,3.85
2022-12-23T04:38:54.748Z,4.30
2022-12-23T04:41:21.611Z,3.40
2022-12-23T04:43:53.035Z,4.18
2022-12-23T04:46:20.974Z,4.65
2022-12-23T04:48:47.908Z,4.32
2022-12-23T04:51:14.689Z,5.25
2022-12-23T04:53:41.664Z,6.50
2022-12-23T04:56:08.453Z,8.70
2022-12-23T04:58:35.269Z,8.80
2022-12-23T05:01:06.595Z,9.85
2022-12-23T05:03:34.409Z,9.05
2022-12-23T05:06:01.447Z,8.90
2022-12-23T05:08:28.962Z,9.10
2022-12-23T05:10:56.201Z,9.30
2022-12-23T05:13:23.695Z,8.82
2022-12-23T05:15:54.291Z,7.97
2022-12-23T05:18:22.371Z,5.70
2022-12-23T05:20:50.898Z,5.10
2022-12-23T05:23:17.831Z,3.97
2022-12-23T05:25:51.161Z,3.75
2022-12-23T05:28:18.100Z,3.00
2022-12-23T05:30:44.874Z,2.90
2022-12-23T05:33:11.918Z,3.92
2022-12-23T05:35:38.699Z,3.53
2022-12-23T05:38:06.511Z,2.83
2022-12-23T05:40:34.051Z,3.40
2022-12-23T05:43:00.956Z,2.40
2022-12-23T05:45:27.965Z,1.83
2022-12-23T05:47:54.915Z,1.67
2022-12-23T05:50:21.827Z,2.22
2022-12-23T05:52:49.317Z,2.43
2022-12-23T05:55:16.393Z,2.10
2022-12-23T05:57:43.368Z,2.10
2022-12-23T06:00:10.814Z,2.20
2022-12-23T06:02:41.449Z,2.65
2022-12-23T06:05:09.203Z,3.05
2022-12-23T06:07:36.460Z,3.20
2022-12-23T06:10:09.106Z,3.90
2022-12-23T06:12:36.435Z,5.03
2022-12-23T06:15:03.856Z,4.32
2022-12-23T06:17:30.787Z,3.75
2022-12-23T06:19:57.587Z,3.47
2022-12-23T06:22:24.510Z,3.23
2022-12-23T06:24:51.413Z,3.67
2022-12-23T06:27:18.957Z,3.60
2022-12-23T06:29:45.850Z,3.50
2022-12-23T06:32:12.935Z,3.50
2022-12-23T06:34:39.877Z,3.50
2022-12-23T06:37:06.745Z,3.80
2022-12-23T06:39:33.848Z,3.70
2022-12-23T06:42:00.680Z,3.83
2022-12-23T06:44:27.600Z,3.70
2022-12-23T06:46:54.475Z,3.73
2022-12-23T06:49:21.273Z,3.40
2022-12-23T06:51:48.070Z,3.63
2022-12-23T06:54:14.976Z,3.85
2022-12-23T06:56:41.807Z,3.90
2022-12-23T06:59:08.781Z,4.10
2022-12-23T07:01:35.825Z,4.20
2022-12-23T07:04:02.905Z,4.45
2022-12-23T07:06:29.782Z,4.57
2022-12-23T07:08:56.594Z,5.93
2022-12-23T07:11:23.413Z,5.13
2022-12-23T07:13:50.800Z,3.95
2022-12-23T07:16:17.738Z,3.92
2022-12-23T07:18:44.603Z,4.32
2022-12-23T07:21:21.263Z,4.05
2022-12-23T07:23:53.431Z,3.30
2022-12-23T07:26:20.270Z,3.75
2022-12-23T07:28:47.094Z,4.05
2022-12-23T07:31:14.145Z,3.97
2022-12-23T07:33:41.250Z,4.25
2022-12-23T07:36:08.362Z,4.10
2022-12-23T07:38:35.133Z,4.22
2022-12-23T07:41:01.945Z,4.60
2022-12-23T07:43:28.731Z,4.57
2022-12-23T07:45:59.869Z,4.57
2022-12-23T07:48:28.320Z,4.30
2022-12-23T07:51:01.143Z,5.50
2022-12-23T07:53:28.187Z,5.53
2022-12-23T07:55:56.804Z,5.40
2022-12-23T07:58:24.703Z,5.60
2022-12-23T08:00:59.253Z,5.20
2022-12-23T08:03:26.241Z,5.88
2022-12-23T08:06:01.162Z,5.50
2022-12-23T08:08:28.711Z,5.80
2022-12-23T08:11:00.829Z,5.60
2022-12-23T08:13:28.573Z,5.57
2022-12-23T08:16:00.186Z,6.05
2022-12-23T08:18:29.298Z,6.53
2022-12-23T08:20:57.968Z,6.53
2022-12-23T08:23:25.840Z,6.90
2022-12-23T08:26:20.425Z,6.70
2022-12-23T08:28:48.480Z,7.80
2022-12-23T08:31:24.336Z,7.32
2022-12-23T08:33:57.259Z,7.07
2022-12-23T08:36:27.295Z,7.65
2022-12-23T08:38:56.137Z,7.77
2022-12-23T08:41:29.245Z,7.70
2022-12-23T08:43:56.809Z,8.00
2022-12-23T08:46:24.262Z,8.10
2022-12-23T08:48:51.131Z,7.80
2022-12-23T08:51:20.067Z,7.90
2022-12-23T08:53:47.585Z,8.20
2022-12-23T08:56:20.568Z,7.40
2022-12-23T08:58:52.973Z,7.70
2022-12-23T09:01:23.035Z,8.70
2022-12-23T09:03:51.114Z,8.40
2022-12-23T09:06:26.469Z,8.30
2022-12-23T09:08:55.686Z,7.90
2022-12-23T09:11:25.201Z,7.25
2022-12-23T09:13:52.215Z,7.63
2022-12-23T09:16:19.689Z,7.10
2022-12-23T09:18:46.559Z,7.97
2022-12-23T09:21:21.336Z,7.97
2022-12-23T09:23:48.729Z,7.25
2022-12-23T09:26:28.208Z,7.82
2022-12-23T09:28:55.929Z,8.07
2022-12-23T09:31:23.865Z,8.15
2022-12-23T09:33:52.718Z,8.95
2022-12-23T09:36:23.581Z,8.50
2022-12-23T09:38:55.651Z,8.13
2022-12-23T09:41:40.756Z,8.37
2022-12-23T09:44:22.071Z,8.40
2022-12-23T09:46:53.983Z,8.32
2022-12-23T09:49:22.772Z,7.97
2022-12-23T09:51:52.459Z,7.90
2022-12-23T09:54:27.585Z,8.27
2022-12-23T09:57:17.270Z,7.97
2022-12-23T10:00:14.224Z,7.82
2022-12-23T10:02:56.308Z,8.38
2022-12-23T10:05:32.775Z,8.85
2022-12-23T10:08:07.781Z,8.97
2022-12-23T10:10:43.966Z,8.60
2022-12-23T10:13:33.549Z,9.90
2022-12-23T10:16:22.964Z,8.68
2022-12-23T10:18:58.916Z,8.82
2022-12-23T10:21:46.727Z,8.90
2022-12-23T10:24:23.477Z,8.40
2022-12-23T10:27:12.984Z,8.57
2022-12-23T10:29:42.295Z,9.80
2022-12-23T10:32:24.966Z,9.40
2022-12-23T10:35:15.702Z,9.27
2022-12-23T10:37:57.681Z,9.00
2022-12-23T10:40:46.259Z,9.40
2022-12-23T10:43:31.837Z,9.25
2022-12-23T10:46:08.767Z,8.45
2022-12-23T10:48:46.995Z,8.20
2022-12-23T10:51:52.300Z,7.93
2022-12-23T10:54:26.695Z,7.97
2022-12-23T10:56:53.908Z,8.15
2022-12-23T10:59:29.576Z,8.07
2022-12-23T11:02:29.282Z,8.77
2022-12-23T11:04:56.427Z,8.35
2022-12-23T11:07:44.250Z,9.32
2022-12-23T11:10:26.170Z,8.98
2022-12-23T11:12:53.650Z,8.80
2022-12-23T11:15:39.096Z,8.20
2022-12-23T11:18:17.816Z,8.38
2022-12-23T11:21:00.864Z,8.50
2022-12-23T11:23:33.880Z,7.35
2022-12-23T11:26:11.606Z,7.55
2022-12-23T11:28:50.392Z,8.07
2022-12-23T11:31:29.260Z,8.35
2022-12-23T11:33:58.338Z,7.82
2022-12-23T11:36:27.702Z,7.63
2022-12-23T11:38:58.395Z,8.52
2022-12-23T11:41:36.187Z,8.83
2022-12-23T11:44:34.133Z,7.55
2022-12-23T11:47:23.748Z,7.53
2022-12-23T11:50:02.237Z,8.45
2022-12-23T11:52:31.912Z,8.15
2022-12-23T11:55:01.981Z,7.83
2022-12-23T11:57:43.229Z,8.77
2022-12-23T12:00:28.805Z,7.65
2022-12-23T12:02:59.287Z,7.75
2022-12-23T12:05:33.666Z,8.30
2022-12-23T12:08:03.645Z,8.50
2022-12-23T12:10:33.462Z,9.43
2022-12-23T12:13:05.140Z,9.23
2022-12-23T12:15:43.623Z,8.48
2022-12-23T12:18:15.898Z,8.68
2022-12-23T12:20:48.568Z,8.63
2022-12-23T12:23:21.000Z,9.13
2022-12-23T12:25:50.272Z,8.55
2022-12-23T12:28:28.430Z,9.93
2022-12-23T12:31:05.497Z,9.40
2022-12-23T12:33:41.237Z,8.73
2022-12-23T12:36:30.526Z,8.88
2022-12-23T12:38:59.073Z,9.95
2022-12-23T12:41:32.664Z,9.23
2022-12-23T12:44:03.761Z,8.00
2022-12-23T12:46:41.084Z,8.73
2022-12-23T12:49:36.414Z,8.13
2022-12-23T12:52:11.677Z,8.73
2022-12-23T12:54:56.006Z,8.65
2022-12-23T12:57:24.805Z,9.38
2022-12-23T13:00:01.643Z,8.57
2022-12-23T13:03:01.599Z,9.02
2022-12-23T13:05:40.609Z,9.10
2022-12-23T13:08:26.655Z,8.63
2022-12-23T13:11:28.170Z,8.40
2022-12-23T13:14:28.373Z,7.73
2022-12-23T13:17:13.736Z,8.27
2022-12-23T13:20:05.374Z,8.55
2022-12-23T13:22:34.318Z,8.20
2022-12-23T13:25:16.251Z,7.55
2022-12-23T13:27:45.593Z,6.33
2022-12-23T13:30:17.210Z,6.47
2022-12-23T13:33:02.322Z,3.95
2022-12-23T13:35:55.504Z,1.08
2022-12-23T13:38:56.757Z,0.80
2022-12-23T13:41:27.558Z,0.20
2022-12-23T13:44:08.180Z,0.17
2022-12-23T13:46:56.065Z,0.10
2022-12-23T13:49:50.264Z,0.10
2022-12-23T13:52:41.697Z,0.30
2022-12-23T13:55:30.693Z,0.20
2022-12-23T13:58:28.278Z,0.10
2022-12-23T14:01:09.983Z,0.20
2022-12-23T14:03:39.114Z,1.40
2022-12-23T14:06:23.697Z,4.53
2022-12-23T14:08:55.027Z,6.93
2022-12-23T14:11:29.497Z,8.55
2022-12-23T14:13:56.496Z,8.82
2022-12-23T14:16:40.883Z,8.55
2022-12-23T14:19:27.092Z,9.10
2022-12-23T14:21:56.654Z,8.17
2022-12-23T14:25:01.661Z,8.52
2022-12-23T14:27:47.032Z,9.20
2022-12-23T14:30:18.011Z,8.45
2022-12-23T14:32:49.263Z,8.90
2022-12-23T14:35:24.203Z,7.90
2022-12-23T14:38:31.374Z,8.40
2022-12-23T14:40:59.247Z,8.18
2022-12-23T14:43:27.750Z,8.65
2022-12-23T14:45:56.584Z,9.00
2022-12-23T14:48:42.114Z,9.07
2022-12-23T14:51:09.150Z,8.80
2022-12-23T14:53:58.855Z,9.07
2022-12-23T14:56:51.221Z,9.18
2022-12-23T14:59:30.384Z,9.95
2022-12-23T15:02:21.058Z,9.00
2022-12-23T15:04:53.081Z,8.98
2022-12-23T15:07:49.494Z,8.27
2022-12-23T15:10:18.317Z,8.60
2022-12-23T15:12:51.790Z,9.40
2022-12-23T15:15:20.037Z,8.03
2022-12-23T15:17:47.414Z,8.68
2022-12-23T15:20:24.172Z,8.70
2022-12-23T15:22:51.484Z,8.40
2022-12-23T15:25:21.369Z,8.98
2022-12-23T15:27:48.646Z,8.50
2022-12-23T15:30:16.667Z,8.63
2022-12-23T15:32:46.688Z,8.45
2022-12-23T15:35:25.096Z,8.57
2022-12-23T15:37:52.633Z,8.68
2022-12-23T15:40:38.857Z,8.43
2022-12-23T15:43:20.230Z,8.95
2022-12-23T15:45:47.059Z,8.60
2022-12-23T15:48:29.701Z,9.35
2022-12-23T15:51:06.587Z,8.93
2022-12-23T15:53:38.928Z,9.20
2022-12-23T15:56:10.117Z,8.90
2022-12-23T15:58:40.740Z,9.63
2022-12-23T16:01:15.248Z,9.40
2022-12-23T16:03:48.768Z,10.05
2022-12-23T16:06:21.663Z,9.10
2022-12-23T16:09:04.264Z,9.20
2022-12-23T16:11:51.974Z,10.00
2022-12-23T16:14:23.402Z,9.38
2022-12-23T16:16:51.586Z,9.90
2022-12-23T16:19:38.499Z,10.10
2022-12-23T16:22:16.034Z,10.13
2022-12-23T16:24:53.627Z,9.27
2022-12-23T16:27:32.216Z,9.82
2022-12-23T16:30:02.473Z,10.00
2022-12-23T16:32:29.442Z,8.97
2022-12-23T16:34:56.256Z,9.60
2022-12-23T16:37:23.099Z,9.65
2022-12-23T16:39:49.895Z,9.20
2022-12-23T16:42:18.910Z,9.27
2022-12-23T16:44:45.709Z,9.63
2022-12-23T16:47:17.457Z,9.32
2022-12-23T16:49:44.409Z,9.68
2022-12-23T16:52:13.251Z,9.95
2022-12-23T16:54:40.072Z,9.73
2022-12-23T16:57:06.869Z,9.93
2022-12-23T16:59:33.752Z,9.73
2022-12-23T17:02:03.667Z,9.90
2022-12-23T17:04:30.873Z,10.23
2022-12-23T17:06:57.836Z,9.68
2022-12-23T17:09:24.583Z,9.27
2022-12-23T17:11:53.832Z,9.68
2022-12-23T17:14:25.313Z,9.98
2022-12-23T17:16:52.409Z,10.63
2022-12-23T17:19:28.407Z,10.73
2022-12-23T17:22:01.760Z,10.63
2022-12-23T17:24:28.582Z,11.27
2022-12-23T17:26:56.467Z,10.35
2022-12-23T17:29:23.699Z,10.65
2022-12-23T17:31:51.223Z,11.35
2022-12-23T17:34:22.326Z,11.30
2022-12-23T17:36:50.640Z,10.43
2022-12-23T17:39:19.045Z,11.18
2022-12-23T17:41:46.062Z,10.77
2022-12-23T17:44:17.739Z,11.30
2022-12-23T17:46:47.486Z,10.60
2022-12-23T17:49:14.261Z,10.02
2022-12-23T17:51:41.951Z,9.48
2022-12-23T17:54:21.813Z,9.13
2022-12-23T17:56:48.888Z,9.70
2022-12-23T17:59:16.213Z,9.70
2022-12-23T18:01:43.415Z,9.80
2022-12-23T18:04:10.177Z,9.32
2022-12-23T18:06:36.942Z,8.30
2022-12-23T18:09:04.533Z,8.70
2022-12-23T18:11:40.944Z,8.47
2022-12-23T18:14:17.610Z,9.75
2022-12-23T18:16:44.532Z,8.98
2022-12-23T18:19:20.960Z,9.07
2022-12-23T18:21:49.992Z,8.77
2022-12-23T18:24:17.383Z,8.60
2022-12-23T18:26:45.098Z,8.50
2022-12-23T18:29:11.886Z,8.93
2022-12-23T18:31:50.635Z,8.70
2022-12-23T18:34:19.436Z,9.00
2022-12-23T18:36:47.241Z,8.97
2022-12-23T18:39:17.423Z,8.40
2022-12-23T18:41:45.127Z,8.10
2022-12-23T18:44:21.193Z,8.90
2022-12-23T18:46:49.127Z,8.70
2022-12-23T18:49:17.541Z,8.63
2022-12-23T18:51:45.907Z,8.63
2022-12-23T18:54:14.823Z,8.25
2022-12-23T18:56:43.125Z,9.20
2022-12-23T18:59:21.412Z,8.85
2022-12-23T19:01:52.312Z,9.00
2022-12-23T19:04:19.776Z,9.10
2022-12-23T19:06:47.665Z,9.15
2022-12-23T19:09:18.154Z,9.93
2022-12-23T19:11:50.868Z,9.70
2022-12-23T19:14:18.806Z,9.50
2022-12-23T19:16:51.652Z,9.63
2022-12-23T19:19:21.176Z,9.35
2022-12-23T19:21:48.445Z,9.55
2022-12-23T19:24:16.441Z,9.35
2022-12-23T19:26:43.863Z,10.03
2022-12-23T19:29:12.882Z,10.35
2022-12-23T19:31:45.977Z,10.13
2022-12-23T19:34:15.379Z,10.98
2022-12-23T19:36:43.051Z,10.88
2022-12-23T19:39:12.226Z,10.80
2022-12-23T19:41:39.133Z,10.57
2022-12-23T19:44:06.046Z,11.13
2022-12-23T19:46:33.315Z,11.07
2022-12-23T19:49:00.260Z,12.27
2022-12-23T19:51:27.156Z,10.80
2022-12-23T19:53:54.029Z,10.93
2022-12-23T19:56:21.503Z,10.32
2022-12-23T19:58:49.848Z,9.50
2022-12-23T20:01:19.904Z,10.07
2022-12-23T20:03:48.963Z,9.73
2022-12-23T20:06:20.086Z,9.25
2022-12-23T20:08:47.420Z,8.95
2022-12-23T20:11:17.920Z,8.88
2022-12-23T20:13:46.016Z,8.35
2022-12-23T20:16:13.649Z,7.77
2022-12-23T20:18:40.646Z,7.95
2022-12-23T20:21:07.550Z,7.38
2022-12-23T20:23:35.282Z,7.15
2022-12-23T20:26:02.699Z,6.63
2022-12-23T20:28:29.769Z,6.40
2022-12-23T20:31:17.221Z,7.30
2022-12-23T20:33:47.585Z,7.35
2022-12-23T20:36:18.051Z,7.65
2022-12-23T20:38:46.881Z,7.82
2022-12-23T20:41:16.667Z,8.10
2022-12-23T20:43:56.925Z,7.35
2022-12-23T20:46:31.782Z,8.20
2022-12-23T20:48:58.695Z,8.45
2022-12-23T20:51:25.917Z,8.65
2022-12-23T20:53:54.877Z,7.77
2022-12-23T20:56:22.330Z,7.10
2022-12-23T20:58:49.247Z,6.68
2022-12-23T21:01:16.205Z,6.63
2022-12-23T21:03:43.589Z,6.78
2022-12-23T21:06:10.657Z,7.10
2022-12-23T21:08:38.236Z,6.85
2022-12-23T21:11:06.543Z,6.60
2022-12-23T21:13:33.432Z,6.50
2022-12-23T21:16:02.176Z,6.40
2022-12-23T21:18:29.042Z,6.57
2022-12-23T21:21:01.243Z,7.15
2022-12-23T21:23:28.134Z,7.05
2022-12-23T21:26:08.960Z,7.20
2022-12-23T21:28:36.596Z,7.55
2022-12-23T21:31:04.764Z,7.20
2022-12-23T21:33:31.480Z,7.80
2022-12-23T21:35:58.348Z,7.43
2022-12-23T21:38:25.121Z,7.20
2022-12-23T21:40:58.665Z,7.88
2022-12-23T21:43:25.431Z,7.50
2022-12-23T21:46:01.279Z,8.10
2022-12-23T21:48:31.223Z,8.88
2022-12-23T21:51:06.547Z,9.02
2022-12-23T21:53:35.294Z,9.05
2022-12-23T21:56:06.977Z,9.13
2022-12-23T21:58:34.514Z,8.75
2022-12-23T22:01:23.872Z,9.38
2022-12-23T22:03:51.798Z,8.90
2022-12-23T22:06:21.708Z,9.27
2022-12-23T22:08:50.169Z,8.87
2022-12-23T22:11:20.961Z,8.80
2022-12-23T22:13:48.417Z,9.38
2022-12-23T22:16:18.950Z,8.30
2022-12-23T22:18:46.749Z,8.93
2022-12-23T22:21:19.190Z,8.50
2022-12-23T22:23:46.314Z,8.65
2022-12-23T22:26:20.228Z,8.80
2022-12-23T22:28:50.923Z,8.63
2022-12-23T22:31:30.348Z,9.18
2022-12-23T22:33:57.550Z,8.50
2022-12-23T22:36:24.471Z,9.05
2022-12-23T22:38:56.320Z,9.55
2022-12-23T22:41:24.416Z,9.20
2022-12-23T22:43:51.634Z,9.05
2022-12-23T22:46:18.956Z,8.63
2022-12-23T22:48:46.270Z,8.95
2022-12-23T22:51:19.850Z,8.73
2022-12-23T22:53:47.351Z,9.07
2022-12-23T22:56:16.169Z,10.27
2022-12-23T22:58:43.201Z,8.80
2022-12-23T23:01:25.667Z,8.65
2022-12-23T23:03:55.122Z,8.90
2022-12-23T23:06:26.566Z,9.40
2022-12-23T23:08:54.424Z,8.40
2022-12-23T23:11:21.458Z,8.70
2022-12-23T23:13:48.478Z,8.40
2022-12-23T23:16:15.357Z,8.38
2022-12-23T23:18:42.126Z,8.48
2022-12-23T23:21:11.564Z,9.00
2022-12-23T23:23:38.610Z,8.63
2022-12-23T23:26:05.574Z,9.60
2022-12-23T23:28:32.417Z,9.60
2022-12-23T23:31:32.001Z,8.75
2022-12-23T23:33:46.316Z,8.15
2022-12-23T23:36:13.173Z,8.20
2022-12-23T23:38:40.045Z,9.77
2022-12-23T23:41:06.898Z,9.10
2022-12-23T23:43:33.722Z,9.98
2022-12-23T23:46:00.592Z,9.70
2022-12-23T23:48:27.541Z,8.50
2022-12-23T23:51:03.068Z,9.25
2022-12-23T23:53:29.888Z,8.82
2022-12-23T23:56:05.119Z,8.30
2022-12-23T23:58:32.300Z,7.38
